European Causeway — C6RG7 — position and weather

sailwx.info

Track history (hours):
 
Tides and Currents Weather Stations Pressure Air Temp Water Temp Dewpoint Dewpoint Depression Visibility Wind Speed Wind Dir Waves Ship Positions

European Causeway

Operator: P & O Irish Sea

Last reported at 2014-Jul-31 11:33 UTC. Time now 2014-Jul-31 11:36 UTC.
Position N 54°51' W 005°48'.

Length 165 m; draft 5.5 m.

Type: Ship (hazmat cat A). MMSI: 311027000.

Date/timePositionNaut miles runAvg speedWind from/ knotsBaromVisibWave heightAir tempDewpointWater temp
2014-Jul-31 11:33N 54°51' W 005°48'1414.2
2014-Jul-31 10:33N 54°57' W 005°26'1414.3
2014-Jul-31 09:34N 54°58' W 005°01'0 0.2
2014-Jul-31 08:33N 54°58' W 005°01'1111.4
2014-Jul-31 07:33N 54°58' W 005°21'1717.0
2014-Jul-31 06:34N 54°51' W 005°48'0 0.1
2014-Jul-31 05:33N 54°51' W 005°48'6 5.9
2014-Jul-31 04:33N 54°54' W 005°39'1818.1
2014-Jul-31 03:33N 55°02' W 005°10'7 6.9
2014-Jul-31 02:33N 54°58' W 005°01'0 0.0
2014-Jul-31 01:33N 54°58' W 005°01'5 5.0
2014-Jul-31 00:29N 55°02' W 005°07'1718.1
2014-Jul-30 23:33N 54°55' W 005°34'9 8.5
2014-Jul-30 22:32N 54°51' W 005°48'0 0.0
2014-Jul-30 21:34N 54°51' W 005°48'3 2.6
2014-Jul-30 20:33N 54°52' W 005°44'1818.3
2014-Jul-30 19:33N 55°00' W 005°16'9 8.6
2014-Jul-30 18:32N 54°58' W 005°01'0 0.1
2014-Jul-30 17:33N 54°58' W 005°01'1212.4
2014-Jul-30 16:33N 54°58' W 005°23'1615.9
2014-Jul-30 15:33N 54°51' W 005°48'0 0.1
2014-Jul-30 14:33N 54°51' W 005°48'1414.4
2014-Jul-30 13:33N 54°58' W 005°26'1413.9
2014-Jul-30 12:32N 54°58' W 005°01'0 0.0
2014-Jul-30 11:34N 54°58' W 005°01'1111.2
2014-Jul-30 10:33N 54°58' W 005°20'1717.2
2014-Jul-30 09:34N 54°51' W 005°48'0 0.1
2014-Jul-30 08:33N 54°51' W 005°48'1414.3
2014-Jul-30 07:33N 54°58' W 005°26'1414.0
2014-Jul-30 06:34N 54°58' W 005°02'1 0.5
2014-Jul-30 05:31N 54°58' W 005°01'5 4.7
2014-Jul-30 04:29N 55°02' W 005°06'1617.6
2014-Jul-30 03:34N 54°55' W 005°32'10 9.9
2014-Jul-30 02:33N 54°51' W 005°48'0 0.0
2014-Jul-30 01:33N 54°51' W 005°48'3 3.3
2014-Jul-30 00:33N 54°53' W 005°43'1817.8
2014-Jul-29 23:33N 55°00' W 005°15'9 7.6
2014-Jul-29 22:25N 54°58' W 005°01'7 3.5
2014-Jul-29 20:22N 55°00' W 005°13'1620.1
2014-Jul-29 19:33N 54°53' W 005°38'6 6.1
2014-Jul-29 18:33N 54°51' W 005°48'0 0.0
2014-Jul-29 17:34N 54°51' W 005°48'1414.5
2014-Jul-29 16:34N 54°58' W 005°26'1414.1
2014-Jul-29 15:34N 54°58' W 005°01'0 0.1
2014-Jul-29 14:33N 54°58' W 005°01'1212.0
2014-Jul-29 13:33N 54°58' W 005°22'1615.8
2014-Jul-29 12:32N 54°51' W 005°48'0 0.1
2014-Jul-29 11:33N 54°51' W 005°48'1413.7
2014-Jul-29 10:33N 54°57' W 005°27'1414.4
2014-Jul-29 09:33N 54°58' W 005°02'1 0.7
2014-Jul-29 08:33N 54°58' W 005°01'10 9.5
2014-Jul-29 07:34N 54°59' W 005°17'1918.4
2014-Jul-29 06:32N 54°51' W 005°48'1 0.7
2014-Jul-29 05:33N 54°51' W 005°48'6 5.8
2014-Jul-29 04:33N 54°54' W 005°39'1817.8
2014-Jul-29 03:34N 55°02' W 005°11'7 7.0
2014-Jul-29 02:33N 54°58' W 005°01'0 0.0
2014-Jul-29 01:33N 54°58' W 005°01'5 4.7
2014-Jul-29 00:27N 55°01' W 005°07'1618.3
2014-Jul-28 23:33N 54°55' W 005°33'9 9.1
2014-Jul-28 22:32N 54°51' W 005°48'0 0.0
2014-Jul-28 21:32N 54°51' W 005°48'4 3.6
2014-Jul-28 20:33N 54°53' W 005°43'1818.3
2014-Jul-28 19:33N 55°00' W 005°14'8 7.6
2014-Jul-28 18:32N 54°58' W 005°01'0 0.2
2014-Jul-28 17:33N 54°58' W 005°01'1312.8
2014-Jul-28 16:33N 54°57' W 005°24'1515.4
2014-Jul-28 15:33N 54°51' W 005°48'0 0.0
2014-Jul-28 14:33N 54°51' W 005°48'1211.8
2014-Jul-28 13:34N 54°57' W 005°30'1615.4
2014-Jul-28 12:32N 54°59' W 005°03'2 1.7
2014-Jul-28 11:32N 54°58' W 005°01'1111.2
2014-Jul-28 10:33N 54°58' W 005°20'1717.3
2014-Jul-28 09:33N 54°51' W 005°48'0 0.2
2014-Jul-28 08:31N 54°51' W 005°48'1212.6
2014-Jul-28 07:33N 54°57' W 005°29'1615.1
2014-Jul-28 06:31N 54°59' W 005°03'1 1.5
2014-Jul-28 05:33N 54°58' W 005°01'6 6.2
2014-Jul-28 04:34N 55°01' W 005°10'1818.0
2014-Jul-28 03:34N 54°54' W 005°38'6 6.4
2014-Jul-28 02:34N 54°51' W 005°48'0 0.0
2014-Jul-28 01:34N 54°51' W 005°48'0 0.0
2014-Jul-28 00:33N 54°51' W 005°48'4 3.7
2014-Jul-27 23:31N 54°53' W 005°42'1818.4
2014-Jul-27 22:33N 55°01' W 005°14'8 8.2
2014-Jul-27 21:34N 54°58' W 005°01'6 5.8
2014-Jul-27 20:34N 55°01' W 005°09'1616.4
2014-Jul-27 19:33N 54°54' W 005°34'9 8.5
2014-Jul-27 18:33N 54°51' W 005°48'0 0.0
2014-Jul-27 17:34N 54°51' W 005°48'1514.8
2014-Jul-27 16:34N 54°58' W 005°25'1413.4
2014-Jul-27 15:31N 54°58' W 005°01'0 0.0
2014-Jul-27 14:33N 54°58' W 005°01'1212.2
2014-Jul-27 13:33N 54°58' W 005°22'1616.2
2014-Jul-27 12:33N 54°51' W 005°48'0 0.1
2014-Jul-27 11:33N 54°51' W 005°48'1313.0
2014-Jul-27 10:33N 54°57' W 005°28'1514.9
2014-Jul-27 09:33N 54°59' W 005°02'1 1.2
2014-Jul-27 08:33N 54°58' W 005°01'1111.0
2014-Jul-27 07:33N 54°58' W 005°20'1817.5
2014-Jul-27 06:33N 54°51' W 005°48'0 0.0
2014-Jul-27 05:34N 54°51' W 005°48'0 0.0
2014-Jul-27 04:34N 54°51' W 005°48'0 0.0
2014-Jul-27 03:33N 54°51' W 005°48'0 0.0
2014-Jul-27 02:34N 54°51' W 005°48'0 0.0
2014-Jul-27 01:33N 54°51' W 005°48'0 0.0
2014-Jul-27 00:34N 54°51' W 005°48'0 0.0
2014-Jul-26 23:33N 54°51' W 005°48'0 0.0
2014-Jul-26 22:34N 54°51' W 005°48'0 0.0
2014-Jul-26 21:34N 54°51' W 005°48'4 3.7
2014-Jul-26 20:34N 54°53' W 005°43'1817.9
2014-Jul-26 19:33N 55°01' W 005°14'8 8.1
2014-Jul-26 18:33N 54°58' W 005°01'0 0.1
2014-Jul-26 17:33N 54°58' W 005°01'1211.9
2014-Jul-26 16:33N 54°58' W 005°22'1716.6
2014-Jul-26 15:34N 54°51' W 005°48'0 0.1
2014-Jul-26 14:33N 54°51' W 005°48'1414.5
2014-Jul-26 13:33N 54°58' W 005°26'1414.2
2014-Jul-26 12:33N 54°58' W 005°01'1 0.6
2014-Jul-26 11:24N 54°58' W 005°02'1214.9
2014-Jul-26 10:33N 54°57' W 005°24'1515.1
2014-Jul-26 09:32N 54°51' W 005°48'0 0.0
2014-Jul-26 08:33N 54°51' W 005°48'1515.4
2014-Jul-26 07:34N 54°58' W 005°24'1312.9
2014-Jul-26 06:32N 54°58' W 005°01'0 0.0
2014-Jul-26 05:33N 54°58' W 005°01'5 5.1
2014-Jul-26 04:33N 55°02' W 005°07'1817.6
2014-Jul-26 03:31N 54°54' W 005°36'7 7.7
2014-Jul-26 02:33N 54°51' W 005°48'0 0.0
2014-Jul-26 01:33N 54°51' W 005°48'2 2.3
2014-Jul-26 00:34N 54°52' W 005°45'1918.5
2014-Jul-25 23:33N 55°01' W 005°16'9 8.8
2014-Jul-25 22:31N 54°58' W 005°01'6 2.8
2014-Jul-25 20:30N 55°01' W 005°08'1717.5
2014-Jul-25 19:34N 54°54' W 005°34'8 8.4
2014-Jul-25 18:33N 54°51' W 005°48'0 0.0
2014-Jul-25 17:34N 54°51' W 005°48'1615.6
2014-Jul-25 16:33N 54°58' W 005°24'1312.2
2014-Jul-25 15:29N 54°58' W 005°01'0 0.0
2014-Jul-25 14:33N 54°58' W 005°01'1312.5
2014-Jul-25 13:33N 54°58' W 005°23'1615.9
2014-Jul-25 12:33N 54°51' W 005°48'0 0.1
2014-Jul-25 11:33N 54°51' W 005°48'1615.6
2014-Jul-25 10:33N 54°58' W 005°24'1311.6
2014-Jul-25 09:25N 54°58' W 005°01'0 0.0
2014-Jul-25 08:33N 54°58' W 005°01'1010.3
2014-Jul-25 07:33N 54°58' W 005°19'1817.7
2014-Jul-25 06:32N 54°51' W 005°48'0 0.2
2014-Jul-25 05:33N 54°51' W 005°48'6 6.1
2014-Jul-25 04:33N 54°54' W 005°39'2119.1
2014-Jul-25 03:28N 55°01' W 005°04'4 3.9
2014-Jul-25 02:33N 54°58' W 005°01'0 0.0
2014-Jul-25 01:33N 54°58' W 005°01'7 6.5
2014-Jul-25 00:32N 55°01' W 005°11'1717.9
2014-Jul-24 23:34N 54°54' W 005°39'6 5.4
2014-Jul-24 22:28N 54°51' W 005°48'0 0.0
2014-Jul-24 21:28N 54°51' W 005°48'5 5.6
2014-Jul-24 20:33N 54°54' W 005°40'1817.9
2014-Jul-24 19:34N 55°01' W 005°12'7 7.0
2014-Jul-24 18:30N 54°58' W 005°01'0 0.0
2014-Jul-24 17:33N 54°58' W 005°01'1211.9
2014-Jul-24 16:33N 54°58' W 005°22'1716.6
2014-Jul-24 15:34N 54°51' W 005°48'0 0.1
2014-Jul-24 14:33N 54°51' W 005°48'1514.7
2014-Jul-24 13:34N 54°58' W 005°26'1414.0
2014-Jul-24 12:33N 54°58' W 005°01'0 0.0
2014-Jul-24 11:33N 54°58' W 005°01'1212.2
2014-Jul-24 10:33N 54°58' W 005°22'1616.2
2014-Jul-24 09:34N 54°51' W 005°48'0 0.1
2014-Jul-24 08:33N 54°51' W 005°48'1514.6
2014-Jul-24 07:33N 54°58' W 005°26'1413.7
2014-Jul-24 06:32N 54°58' W 005°01'0 0.0
2014-Jul-24 05:33N 54°58' W 005°01'5 5.1
2014-Jul-24 04:33N 55°02' W 005°07'1818.0
2014-Jul-24 03:33N 54°54' W 005°35'8 8.0
2014-Jul-24 02:33N 54°51' W 005°48'0 0.0
2014-Jul-24 01:33N 54°51' W 005°48'6 5.9
2014-Jul-24 00:33N 54°54' W 005°39'1818.0
2014-Jul-23 23:34N 55°02' W 005°11'7 7.0
2014-Jul-23 22:33N 54°58' W 005°01'0 0.0
2014-Jul-23 21:31N 54°58' W 005°01'5 5.7
2014-Jul-23 20:33N 55°01' W 005°08'1717.3
2014-Jul-23 19:33N 54°54' W 005°35'8 7.8
2014-Jul-23 18:32N 54°51' W 005°48'0 0.0
2014-Jul-23 17:33N 54°51' W 005°48'1514.7
2014-Jul-23 16:33N 54°58' W 005°25'1414.0
2014-Jul-23 15:33N 54°58' W 005°01'0 0.1
2014-Jul-23 14:33N 54°58' W 005°01'1212.0
2014-Jul-23 13:33N 54°58' W 005°22'1616.3
2014-Jul-23 12:33N 54°51' W 005°48'0 0.1
2014-Jul-23 11:33N 54°51' W 005°48'1615.6
2014-Jul-23 10:34N 54°58' W 005°24'1312.9
2014-Jul-23 09:32N 54°58' W 005°01'0 0.0
2014-Jul-23 08:34N 54°58' W 005°01'1111.2
2014-Jul-23 07:33N 54°58' W 005°20'1717.1
2014-Jul-23 06:33N 54°51' W 005°48'0 0.1
2014-Jul-23 05:32N 54°51' W 005°48'6 6.0
2014-Jul-23 04:33N 54°54' W 005°39'2119.6
2014-Jul-23 03:30N 55°02' W 005°06'5 5.0
2014-Jul-23 02:33N 54°58' W 005°01'0 0.0
2014-Jul-23 01:33N 54°58' W 005°01'5 5.5
2014-Jul-23 00:34N 55°02' W 005°08'1818.0
2014-Jul-22 23:33N 54°54' W 005°36'7 7.4
2014-Jul-22 22:33N 54°51' W 005°48'0 0.0
2014-Jul-22 21:33N 54°51' W 005°48'5 5.1
2014-Jul-22 20:33N 54°54' W 005°41'1817.8
2014-Jul-22 19:33N 55°03' W 005°14'9 6.9
2014-Jul-22 18:18N 54°58' W 005°01'0 0.1
2014-Jul-22 17:34N 54°58' W 005°01'1313.5
2014-Jul-22 16:33N 54°57' W 005°24'1514.9
2014-Jul-22 15:33N 54°51' W 005°48'1 1.0
2014-Jul-22 14:33N 54°52' W 005°48'1616.2
2014-Jul-22 13:33N 55°01' W 005°24'1413.2
2014-Jul-22 12:31N 54°58' W 005°01'0 0.4
2014-Jul-22 11:24N 54°58' W 005°02'1314.3
2014-Jul-22 10:31N 54°57' W 005°24'1516.0
2014-Jul-22 09:33N 54°51' W 005°48'0 0.1
2014-Jul-22 08:33N 54°51' W 005°48'1313.1
2014-Jul-22 07:34N 54°57' W 005°28'1514.9
2014-Jul-22 06:33N 54°58' W 005°02'1 1.0
2014-Jul-22 05:30N 54°58' W 005°01'5 5.1
2014-Jul-22 04:31N 55°02' W 005°07'1617.1
2014-Jul-22 03:34N 54°55' W 005°33'10 9.7
2014-Jul-22 02:33N 54°51' W 005°48'0 0.0
2014-Jul-22 01:33N 54°51' W 005°48'5 5.4
2014-Jul-22 00:33N 54°54' W 005°40'1817.5
2014-Jul-21 23:33N 55°01' W 005°12'7 7.3
2014-Jul-21 22:33N 54°58' W 005°01'0 0.0
2014-Jul-21 21:33N 54°58' W 005°01'6 6.2
2014-Jul-21 20:34N 55°01' W 005°10'517.6
2014-Jul-21 20:18N 54°59' W 005°17'1317.2
2014-Jul-21 19:33N 54°54' W 005°37'7 7.0
2014-Jul-21 18:33N 54°51' W 005°48'3 2.8
2014-Jul-21 17:33N 54°53' W 005°44'2221.9
2014-Jul-21 16:33N 55°02' W 005°10'7 6.3
2014-Jul-21 15:32N 54°58' W 005°01'0 0.0
2014-Jul-21 14:33N 54°58' W 005°01'1312.6
2014-Jul-21 13:34N 54°58' W 005°23'1616.0
2014-Jul-21 12:34N 54°51' W 005°48'0 0.0
2014-Jul-21 11:33N 54°51' W 005°48'1615.5
2014-Jul-21 10:34N 54°59' W 005°25'  
Track history (hours):
 
Tides and Currents Weather Stations Pressure Air Temp Water Temp Dewpoint Dewpoint Depression Visibility Wind Speed Wind Dir Waves Ship Positions

European Causeway

Operator: P & O Irish Sea

Last reported at 2014-Jul-31 11:33 UTC. Time now 2014-Jul-31 11:36 UTC.
Position N 54°51' W 005°48'.

Length 165 m; draft 5.5 m.

Type: Ship (hazmat cat A). MMSI: 311027000.

Date/timePositionNaut miles runAvg speedWind from/ knotsBaromVisibWave heightAir tempDewpointWater temp
2014-Jul-31 11:33N 54°51' W 005°48'1414.2
2014-Jul-31 10:33N 54°57' W 005°26'1414.3
2014-Jul-31 09:34N 54°58' W 005°01'0 0.2
2014-Jul-31 08:33N 54°58' W 005°01'1111.4
2014-Jul-31 07:33N 54°58' W 005°21'1717.0
2014-Jul-31 06:34N 54°51' W 005°48'0 0.1
2014-Jul-31 05:33N 54°51' W 005°48'6 5.9
2014-Jul-31 04:33N 54°54' W 005°39'1818.1
2014-Jul-31 03:33N 55°02' W 005°10'7 6.9
2014-Jul-31 02:33N 54°58' W 005°01'0 0.0
2014-Jul-31 01:33N 54°58' W 005°01'5 5.0
2014-Jul-31 00:29N 55°02' W 005°07'1718.1
2014-Jul-30 23:33N 54°55' W 005°34'9 8.5
2014-Jul-30 22:32N 54°51' W 005°48'0 0.0
2014-Jul-30 21:34N 54°51' W 005°48'3 2.6
2014-Jul-30 20:33N 54°52' W 005°44'1818.3
2014-Jul-30 19:33N 55°00' W 005°16'9 8.6
2014-Jul-30 18:32N 54°58' W 005°01'0 0.1
2014-Jul-30 17:33N 54°58' W 005°01'1212.4
2014-Jul-30 16:33N 54°58' W 005°23'1615.9
2014-Jul-30 15:33N 54°51' W 005°48'0 0.1
2014-Jul-30 14:33N 54°51' W 005°48'1414.4
2014-Jul-30 13:33N 54°58' W 005°26'1413.9
2014-Jul-30 12:32N 54°58' W 005°01'0 0.0
2014-Jul-30 11:34N 54°58' W 005°01'1111.2
2014-Jul-30 10:33N 54°58' W 005°20'1717.2
2014-Jul-30 09:34N 54°51' W 005°48'0 0.1
2014-Jul-30 08:33N 54°51' W 005°48'1414.3
2014-Jul-30 07:33N 54°58' W 005°26'1414.0
2014-Jul-30 06:34N 54°58' W 005°02'1 0.5
2014-Jul-30 05:31N 54°58' W 005°01'5 4.7
2014-Jul-30 04:29N 55°02' W 005°06'1617.6
2014-Jul-30 03:34N 54°55' W 005°32'10 9.9
2014-Jul-30 02:33N 54°51' W 005°48'0 0.0
2014-Jul-30 01:33N 54°51' W 005°48'3 3.3
2014-Jul-30 00:33N 54°53' W 005°43'1817.8
2014-Jul-29 23:33N 55°00' W 005°15'9 7.6
2014-Jul-29 22:25N 54°58' W 005°01'7 3.5
2014-Jul-29 20:22N 55°00' W 005°13'1620.1
2014-Jul-29 19:33N 54°53' W 005°38'6 6.1
2014-Jul-29 18:33N 54°51' W 005°48'0 0.0
2014-Jul-29 17:34N 54°51' W 005°48'1414.5
2014-Jul-29 16:34N 54°58' W 005°26'1414.1
2014-Jul-29 15:34N 54°58' W 005°01'0 0.1
2014-Jul-29 14:33N 54°58' W 005°01'1212.0
2014-Jul-29 13:33N 54°58' W 005°22'1615.8
2014-Jul-29 12:32N 54°51' W 005°48'0 0.1
2014-Jul-29 11:33N 54°51' W 005°48'1413.7
2014-Jul-29 10:33N 54°57' W 005°27'1414.4
2014-Jul-29 09:33N 54°58' W 005°02'1 0.7
2014-Jul-29 08:33N 54°58' W 005°01'10 9.5
2014-Jul-29 07:34N 54°59' W 005°17'1918.4
2014-Jul-29 06:32N 54°51' W 005°48'1 0.7
2014-Jul-29 05:33N 54°51' W 005°48'6 5.8
2014-Jul-29 04:33N 54°54' W 005°39'1817.8
2014-Jul-29 03:34N 55°02' W 005°11'7 7.0
2014-Jul-29 02:33N 54°58' W 005°01'0 0.0
2014-Jul-29 01:33N 54°58' W 005°01'5 4.7
2014-Jul-29 00:27N 55°01' W 005°07'1618.3
2014-Jul-28 23:33N 54°55' W 005°33'9 9.1
2014-Jul-28 22:32N 54°51' W 005°48'0 0.0
2014-Jul-28 21:32N 54°51' W 005°48'4 3.6
2014-Jul-28 20:33N 54°53' W 005°43'1818.3
2014-Jul-28 19:33N 55°00' W 005°14'8 7.6
2014-Jul-28 18:32N 54°58' W 005°01'0 0.2
2014-Jul-28 17:33N 54°58' W 005°01'1312.8
2014-Jul-28 16:33N 54°57' W 005°24'1515.4
2014-Jul-28 15:33N 54°51' W 005°48'0 0.0
2014-Jul-28 14:33N 54°51' W 005°48'1211.8
2014-Jul-28 13:34N 54°57' W 005°30'1615.4
2014-Jul-28 12:32N 54°59' W 005°03'2 1.7
2014-Jul-28 11:32N 54°58' W 005°01'1111.2
2014-Jul-28 10:33N 54°58' W 005°20'1717.3
2014-Jul-28 09:33N 54°51' W 005°48'0 0.2
2014-Jul-28 08:31N 54°51' W 005°48'1212.6
2014-Jul-28 07:33N 54°57' W 005°29'1615.1
2014-Jul-28 06:31N 54°59' W 005°03'1 1.5
2014-Jul-28 05:33N 54°58' W 005°01'6 6.2
2014-Jul-28 04:34N 55°01' W 005°10'1818.0
2014-Jul-28 03:34N 54°54' W 005°38'6 6.4
2014-Jul-28 02:34N 54°51' W 005°48'0 0.0
2014-Jul-28 01:34N 54°51' W 005°48'0 0.0
2014-Jul-28 00:33N 54°51' W 005°48'4 3.7
2014-Jul-27 23:31N 54°53' W 005°42'1818.4
2014-Jul-27 22:33N 55°01' W 005°14'8 8.2
2014-Jul-27 21:34N 54°58' W 005°01'6 5.8
2014-Jul-27 20:34N 55°01' W 005°09'1616.4
2014-Jul-27 19:33N 54°54' W 005°34'9 8.5
2014-Jul-27 18:33N 54°51' W 005°48'0 0.0
2014-Jul-27 17:34N 54°51' W 005°48'1514.8
2014-Jul-27 16:34N 54°58' W 005°25'1413.4
2014-Jul-27 15:31N 54°58' W 005°01'0 0.0
2014-Jul-27 14:33N 54°58' W 005°01'1212.2
2014-Jul-27 13:33N 54°58' W 005°22'1616.2
2014-Jul-27 12:33N 54°51' W 005°48'0 0.1
2014-Jul-27 11:33N 54°51' W 005°48'1313.0
2014-Jul-27 10:33N 54°57' W 005°28'1514.9
2014-Jul-27 09:33N 54°59' W 005°02'1 1.2
2014-Jul-27 08:33N 54°58' W 005°01'1111.0
2014-Jul-27 07:33N 54°58' W 005°20'1817.5
2014-Jul-27 06:33N 54°51' W 005°48'0 0.0
2014-Jul-27 05:34N 54°51' W 005°48'0 0.0
2014-Jul-27 04:34N 54°51' W 005°48'0 0.0
2014-Jul-27 03:33N 54°51' W 005°48'0 0.0
2014-Jul-27 02:34N 54°51' W 005°48'0 0.0
2014-Jul-27 01:33N 54°51' W 005°48'0 0.0
2014-Jul-27 00:34N 54°51' W 005°48'0 0.0
2014-Jul-26 23:33N 54°51' W 005°48'0 0.0
2014-Jul-26 22:34N 54°51' W 005°48'0 0.0
2014-Jul-26 21:34N 54°51' W 005°48'4 3.7
2014-Jul-26 20:34N 54°53' W 005°43'1817.9
2014-Jul-26 19:33N 55°01' W 005°14'8 8.1
2014-Jul-26 18:33N 54°58' W 005°01'0 0.1
2014-Jul-26 17:33N 54°58' W 005°01'1211.9
2014-Jul-26 16:33N 54°58' W 005°22'1716.6
2014-Jul-26 15:34N 54°51' W 005°48'0 0.1
2014-Jul-26 14:33N 54°51' W 005°48'1414.5
2014-Jul-26 13:33N 54°58' W 005°26'1414.2
2014-Jul-26 12:33N 54°58' W 005°01'1 0.6
2014-Jul-26 11:24N 54°58' W 005°02'1214.9
2014-Jul-26 10:33N 54°57' W 005°24'1515.1
2014-Jul-26 09:32N 54°51' W 005°48'0 0.0
2014-Jul-26 08:33N 54°51' W 005°48'1515.4
2014-Jul-26 07:34N 54°58' W 005°24'1312.9
2014-Jul-26 06:32N 54°58' W 005°01'0 0.0
2014-Jul-26 05:33N 54°58' W 005°01'5 5.1
2014-Jul-26 04:33N 55°02' W 005°07'1817.6
2014-Jul-26 03:31N 54°54' W 005°36'7 7.7
2014-Jul-26 02:33N 54°51' W 005°48'0 0.0
2014-Jul-26 01:33N 54°51' W 005°48'2 2.3
2014-Jul-26 00:34N 54°52' W 005°45'1918.5
2014-Jul-25 23:33N 55°01' W 005°16'9 8.8
2014-Jul-25 22:31N 54°58' W 005°01'6 2.8
2014-Jul-25 20:30N 55°01' W 005°08'1717.5
2014-Jul-25 19:34N 54°54' W 005°34'8 8.4
2014-Jul-25 18:33N 54°51' W 005°48'0 0.0
2014-Jul-25 17:34N 54°51' W 005°48'1615.6
2014-Jul-25 16:33N 54°58' W 005°24'1312.2
2014-Jul-25 15:29N 54°58' W 005°01'0 0.0
2014-Jul-25 14:33N 54°58' W 005°01'1312.5
2014-Jul-25 13:33N 54°58' W 005°23'1615.9
2014-Jul-25 12:33N 54°51' W 005°48'0 0.1
2014-Jul-25 11:33N 54°51' W 005°48'1615.6
2014-Jul-25 10:33N 54°58' W 005°24'1311.6
2014-Jul-25 09:25N 54°58' W 005°01'0 0.0
2014-Jul-25 08:33N 54°58' W 005°01'1010.3
2014-Jul-25 07:33N 54°58' W 005°19'1817.7
2014-Jul-25 06:32N 54°51' W 005°48'0 0.2
2014-Jul-25 05:33N 54°51' W 005°48'6 6.1
2014-Jul-25 04:33N 54°54' W 005°39'2119.1
2014-Jul-25 03:28N 55°01' W 005°04'4 3.9
2014-Jul-25 02:33N 54°58' W 005°01'0 0.0
2014-Jul-25 01:33N 54°58' W 005°01'7 6.5
2014-Jul-25 00:32N 55°01' W 005°11'1717.9
2014-Jul-24 23:34N 54°54' W 005°39'6 5.4
2014-Jul-24 22:28N 54°51' W 005°48'0 0.0
2014-Jul-24 21:28N 54°51' W 005°48'5 5.6
2014-Jul-24 20:33N 54°54' W 005°40'1817.9
2014-Jul-24 19:34N 55°01' W 005°12'7 7.0
2014-Jul-24 18:30N 54°58' W 005°01'0 0.0
2014-Jul-24 17:33N 54°58' W 005°01'1211.9
2014-Jul-24 16:33N 54°58' W 005°22'1716.6
2014-Jul-24 15:34N 54°51' W 005°48'0 0.1
2014-Jul-24 14:33N 54°51' W 005°48'1514.7
2014-Jul-24 13:34N 54°58' W 005°26'1414.0
2014-Jul-24 12:33N 54°58' W 005°01'0 0.0
2014-Jul-24 11:33N 54°58' W 005°01'1212.2
2014-Jul-24 10:33N 54°58' W 005°22'1616.2
2014-Jul-24 09:34N 54°51' W 005°48'0 0.1
2014-Jul-24 08:33N 54°51' W 005°48'1514.6
2014-Jul-24 07:33N 54°58' W 005°26'1413.7
2014-Jul-24 06:32N 54°58' W 005°01'0 0.0
2014-Jul-24 05:33N 54°58' W 005°01'5 5.1
2014-Jul-24 04:33N 55°02' W 005°07'1818.0
2014-Jul-24 03:33N 54°54' W 005°35'8 8.0
2014-Jul-24 02:33N 54°51' W 005°48'0 0.0
2014-Jul-24 01:33N 54°51' W 005°48'6 5.9
2014-Jul-24 00:33N 54°54' W 005°39'1818.0
2014-Jul-23 23:34N 55°02' W 005°11'7 7.0
2014-Jul-23 22:33N 54°58' W 005°01'0 0.0
2014-Jul-23 21:31N 54°58' W 005°01'5 5.7
2014-Jul-23 20:33N 55°01' W 005°08'1717.3
2014-Jul-23 19:33N 54°54' W 005°35'8 7.8
2014-Jul-23 18:32N 54°51' W 005°48'0 0.0
2014-Jul-23 17:33N 54°51' W 005°48'1514.7
2014-Jul-23 16:33N 54°58' W 005°25'1414.0
2014-Jul-23 15:33N 54°58' W 005°01'0 0.1
2014-Jul-23 14:33N 54°58' W 005°01'1212.0
2014-Jul-23 13:33N 54°58' W 005°22'1616.3
2014-Jul-23 12:33N 54°51' W 005°48'0 0.1
2014-Jul-23 11:33N 54°51' W 005°48'1615.6
2014-Jul-23 10:34N 54°58' W 005°24'1312.9
2014-Jul-23 09:32N 54°58' W 005°01'0 0.0
2014-Jul-23 08:34N 54°58' W 005°01'1111.2
2014-Jul-23 07:33N 54°58' W 005°20'1717.1
2014-Jul-23 06:33N 54°51' W 005°48'0 0.1
2014-Jul-23 05:32N 54°51' W 005°48'6 6.0
2014-Jul-23 04:33N 54°54' W 005°39'2119.6
2014-Jul-23 03:30N 55°02' W 005°06'5 5.0
2014-Jul-23 02:33N 54°58' W 005°01'0 0.0
2014-Jul-23 01:33N 54°58' W 005°01'5 5.5
2014-Jul-23 00:34N 55°02' W 005°08'1818.0
2014-Jul-22 23:33N 54°54' W 005°36'7 7.4
2014-Jul-22 22:33N 54°51' W 005°48'0 0.0
2014-Jul-22 21:33N 54°51' W 005°48'5 5.1
2014-Jul-22 20:33N 54°54' W 005°41'1817.8
2014-Jul-22 19:33N 55°03' W 005°14'9 6.9
2014-Jul-22 18:18N 54°58' W 005°01'0 0.1
2014-Jul-22 17:34N 54°58' W 005°01'1313.5
2014-Jul-22 16:33N 54°57' W 005°24'1514.9
2014-Jul-22 15:33N 54°51' W 005°48'1 1.0
2014-Jul-22 14:33N 54°52' W 005°48'1616.2
2014-Jul-22 13:33N 55°01' W 005°24'1413.2
2014-Jul-22 12:31N 54°58' W 005°01'0 0.4
2014-Jul-22 11:24N 54°58' W 005°02'1314.3
2014-Jul-22 10:31N 54°57' W 005°24'1516.0
2014-Jul-22 09:33N 54°51' W 005°48'0 0.1
2014-Jul-22 08:33N 54°51' W 005°48'1313.1
2014-Jul-22 07:34N 54°57' W 005°28'1514.9
2014-Jul-22 06:33N 54°58' W 005°02'1 1.0
2014-Jul-22 05:30N 54°58' W 005°01'5 5.1
2014-Jul-22 04:31N 55°02' W 005°07'1617.1
2014-Jul-22 03:34N 54°55' W 005°33'10 9.7
2014-Jul-22 02:33N 54°51' W 005°48'0 0.0
2014-Jul-22 01:33N 54°51' W 005°48'5 5.4
2014-Jul-22 00:33N 54°54' W 005°40'1817.5
2014-Jul-21 23:33N 55°01' W 005°12'7 7.3
2014-Jul-21 22:33N 54°58' W 005°01'0 0.0
2014-Jul-21 21:33N 54°58' W 005°01'6 6.2
2014-Jul-21 20:34N 55°01' W 005°10'517.6
2014-Jul-21 20:18N 54°59' W 005°17'1317.2
2014-Jul-21 19:33N 54°54' W 005°37'7 7.0
2014-Jul-21 18:33N 54°51' W 005°48'3 2.8
2014-Jul-21 17:33N 54°53' W 005°44'2221.9
2014-Jul-21 16:33N 55°02' W 005°10'7 6.3
2014-Jul-21 15:32N 54°58' W 005°01'0 0.0
2014-Jul-21 14:33N 54°58' W 005°01'1312.6
2014-Jul-21 13:34N 54°58' W 005°23'1616.0
2014-Jul-21 12:34N 54°51' W 005°48'0 0.0
2014-Jul-21 11:33N 54°51' W 005°48'1615.5
2014-Jul-21 10:34N 54°59' W 005°25'  

Dump ship's entire track history